createdAt,value
2023-11-12T00:00:40.318Z,990.9
2023-11-12T00:01:52.907Z,990.9
2023-11-12T00:02:57.764Z,990.9
2023-11-12T00:04:06.396Z,990.9
2023-11-12T00:05:11.367Z,990.9
2023-11-12T00:06:23.782Z,991
2023-11-12T00:07:36.335Z,990.9
2023-11-12T00:08:41.204Z,990.9
2023-11-12T00:09:53.765Z,990.9
2023-11-12T00:11:11.180Z,990.9
2023-11-12T00:12:34.384Z,991
2023-11-12T00:13:47.052Z,991
2023-11-12T00:14:59.535Z,990.9
2023-11-12T00:16:04.406Z,990.9
2023-11-12T00:17:13.117Z,990.9
2023-11-12T00:18:28.628Z,991
2023-11-12T00:19:29.550Z,991
2023-11-12T00:20:30.635Z,991
2023-11-12T00:21:43.347Z,991
2023-11-12T00:22:51.877Z,991
2023-11-12T00:24:04.496Z,991
2023-11-12T00:25:23.833Z,991
2023-11-12T00:26:28.709Z,991
2023-11-12T00:27:37.398Z,991
2023-11-12T00:28:42.251Z,991
2023-11-12T00:29:50.919Z,991.1
2023-11-12T00:31:03.488Z,991.1
2023-11-12T00:32:16.149Z,991.2
2023-11-12T00:33:34.414Z,991.1
2023-11-12T00:34:51.180Z,991
2023-11-12T00:36:12.075Z,991.1
2023-11-12T00:37:20.807Z,991.1
2023-11-12T00:38:41.056Z,991.1
2023-11-12T00:39:45.883Z,991.1
2023-11-12T00:40:46.864Z,991.1
2023-11-12T00:42:03.322Z,991.1
2023-11-12T00:43:16.132Z,991.1
2023-11-12T00:44:28.536Z,990
2023-11-12T00:45:37.122Z,990.5
2023-11-12T00:46:49.721Z,990.7
2023-11-12T00:47:54.521Z,991
2023-11-12T00:49:07.074Z,991.1
2023-11-12T00:50:11.959Z,991.1
2023-11-12T00:51:30.307Z,991.2
2023-11-12T00:53:02.026Z,991.2
2023-11-12T00:54:10.665Z,991.2
2023-11-12T00:55:38.529Z,991.2
2023-11-12T00:56:47.214Z,991.2
2023-11-12T00:57:52.096Z,991.2
2023-11-12T00:58:56.992Z,991.2
2023-11-12T01:00:09.528Z,991.2
2023-11-12T01:01:18.269Z,991.2
2023-11-12T01:02:19.287Z,991.2
2023-11-12T01:03:27.971Z,991.2
2023-11-12T01:04:36.594Z,991.2
2023-11-12T01:05:49.152Z,991.2
2023-11-12T01:06:57.856Z,991.2
2023-11-12T01:08:10.515Z,991.2
2023-11-12T01:09:15.369Z,991.2
2023-11-12T01:10:27.896Z,991.2
2023-11-12T01:11:40.377Z,991.3
2023-11-12T01:12:49.072Z,991.2
2023-11-12T01:14:06.468Z,991.2
2023-11-12T01:15:12.304Z,991.3
2023-11-12T01:16:22.048Z,991.2
2023-11-12T01:17:38.647Z,991.2
2023-11-12T01:18:54.821Z,991.2
2023-11-12T01:20:07.413Z,991.2
2023-11-12T01:21:19.994Z,991.3
2023-11-12T01:22:32.535Z,991.3
2023-11-12T01:23:37.375Z,991.2
2023-11-12T01:24:53.772Z,991.2
2023-11-12T01:26:06.317Z,991.3
2023-11-12T01:27:11.233Z,991.3
2023-11-12T01:28:15.983Z,991.3
2023-11-12T01:29:24.818Z,991.3
2023-11-12T01:30:33.452Z,991.2
2023-11-12T01:31:42.172Z,991.2
2023-11-12T01:32:58.563Z,991.2
2023-11-12T01:34:11.079Z,991.2
2023-11-12T01:35:19.781Z,991.2
2023-11-12T01:36:25.727Z,991.2
2023-11-12T01:37:30.551Z,991.2
2023-11-12T01:38:39.258Z,991.2
2023-11-12T01:39:40.154Z,991.2
2023-11-12T01:40:52.734Z,991.2
2023-11-12T01:42:12.922Z,991.2
2023-11-12T01:43:25.295Z,990.5
2023-11-12T01:44:39.690Z,991.1
2023-11-12T01:45:50.423Z,991.1
2023-11-12T01:47:10.704Z,991.2
2023-11-12T01:48:21.498Z,990.9
2023-11-12T01:51:20.943Z,991.2
2023-11-12T01:52:25.983Z,991.2
2023-11-12T01:53:30.645Z,991.2
2023-11-12T01:54:47.564Z,991.3
2023-11-12T01:55:56.689Z,991.3
2023-11-12T01:57:17.007Z,991.3
2023-11-12T01:58:29.574Z,991.3
2023-11-12T01:59:42.157Z,991.3
2023-11-12T02:01:02.406Z,991.3
2023-11-12T02:02:11.039Z,991.3
2023-11-12T02:03:20.392Z,991.3
2023-11-12T02:04:25.689Z,991.3
2023-11-12T02:05:45.853Z,991.3
2023-11-12T02:07:02.304Z,991.3
2023-11-12T02:08:14.765Z,991.2
2023-11-12T02:09:23.536Z,991.2
2023-11-12T02:10:36.160Z,991.3
2023-11-12T02:11:44.785Z,991.3
2023-11-12T02:13:01.206Z,991.2
2023-11-12T02:14:14.066Z,991.2
2023-11-12T02:15:27.383Z,991.2
2023-11-12T02:16:36.012Z,991.2
2023-11-12T02:17:52.401Z,991.2
2023-11-12T02:19:02.069Z,991.2
2023-11-12T02:20:26.373Z,991.4
2023-11-12T02:21:44.876Z,991.3
2023-11-12T02:22:49.540Z,991.3
2023-11-12T02:24:02.182Z,991.2
2023-11-12T02:25:15.728Z,991.2
2023-11-12T02:26:32.174Z,991.3
2023-11-12T02:27:52.344Z,991.3
2023-11-12T02:29:04.947Z,991.3
2023-11-12T02:30:10.844Z,991.3
2023-11-12T02:31:19.448Z,991.3
2023-11-12T02:32:38.897Z,991.4
2023-11-12T02:35:59.809Z,991.4
2023-11-12T02:37:04.666Z,991.4
2023-11-12T02:38:15.478Z,991.3
2023-11-12T02:39:24.357Z,991.4
2023-11-12T02:40:40.579Z,991.4
2023-11-12T02:41:49.265Z,991.4
2023-11-12T02:43:01.788Z,991.4
2023-11-12T02:44:14.385Z,991.4
2023-11-12T02:45:23.249Z,991.3
2023-11-12T02:46:31.793Z,991.3
2023-11-12T02:47:32.770Z,991.3
2023-11-12T02:48:48.958Z,991.3
2023-11-12T02:50:07.142Z,991.3
2023-11-12T02:51:15.889Z,991.3
2023-11-12T02:52:28.430Z,991.3
2023-11-12T02:53:41.025Z,991.3
2023-11-12T02:54:41.978Z,991.3
2023-11-12T02:55:56.590Z,991.3
2023-11-12T02:57:05.336Z,991.3
2023-11-12T02:58:19.809Z,991.3
2023-11-12T02:59:33.408Z,991.3
2023-11-12T03:00:38.370Z,991.3
2023-11-12T03:01:52.761Z,991.4
2023-11-12T03:03:11.263Z,991.4
2023-11-12T03:04:16.077Z,991.4
2023-11-12T03:05:16.994Z,991.4
2023-11-12T03:06:29.725Z,991.4
2023-11-12T03:07:42.273Z,991.4
2023-11-12T03:08:54.793Z,991.4
2023-11-12T03:10:06.492Z,991.4
2023-11-12T03:11:07.474Z,991.4
2023-11-12T03:12:16.411Z,991.5
2023-11-12T03:13:25.076Z,990.7
2023-11-12T03:14:45.278Z,991.1
2023-11-12T03:15:57.730Z,991.3
2023-11-12T03:17:10.281Z,991.4
2023-11-12T03:18:15.147Z,991.4
2023-11-12T03:19:31.548Z,991.4
2023-11-12T03:20:40.212Z,991.4
2023-11-12T03:21:52.790Z,991.4
2023-11-12T03:23:01.477Z,991.4
2023-11-12T03:24:15.070Z,991.4
2023-11-12T03:25:23.757Z,991.5
2023-11-12T03:26:36.295Z,991.5
2023-11-12T03:27:52.772Z,991.5
2023-11-12T03:29:09.091Z,991.5
2023-11-12T03:30:17.869Z,991.5
2023-11-12T03:31:26.548Z,991.5
2023-11-12T03:32:46.941Z,991.5
2023-11-12T03:33:59.536Z,991.4
2023-11-12T03:35:14.859Z,991.5
2023-11-12T03:36:23.593Z,991.4
2023-11-12T03:37:32.258Z,991.4
2023-11-12T03:38:33.275Z,991.5
2023-11-12T03:39:38.173Z,991.4
2023-11-12T03:40:39.125Z,991.4
2023-11-12T03:41:43.975Z,991.4
2023-11-12T03:42:56.564Z,991.4
2023-11-12T03:44:01.446Z,991.4
2023-11-12T03:45:06.344Z,991.4
2023-11-12T03:46:07.254Z,991.4
2023-11-12T03:47:14.538Z,991.4
2023-11-12T03:48:16.162Z,991.4
2023-11-12T03:49:24.873Z,991.4
2023-11-12T03:50:37.344Z,990.8
2023-11-12T03:51:42.215Z,991.2
2023-11-12T03:52:47.123Z,991.3
2023-11-12T03:53:51.888Z,991.4
2023-11-12T03:54:56.815Z,991.4
2023-11-12T03:56:01.600Z,991.4
2023-11-12T03:57:21.003Z,991.3
2023-11-12T03:58:29.769Z,991.4
2023-11-12T03:59:34.844Z,991.4
2023-11-12T04:00:39.477Z,991.4
2023-11-12T04:01:40.431Z,991.4
2023-11-12T04:02:49.170Z,991.4
2023-11-12T04:03:54.130Z,991.5
2023-11-12T04:04:58.922Z,991.5
2023-11-12T04:06:03.782Z,991.4
2023-11-12T04:07:12.355Z,991.5
2023-11-12T04:08:17.225Z,991.5
2023-11-12T04:09:18.254Z,991.5
2023-11-12T04:10:19.251Z,991.4
2023-11-12T04:11:20.251Z,991.4
2023-11-12T04:12:25.158Z,991.5
2023-11-12T04:13:37.773Z,991.5
2023-11-12T04:14:42.460Z,991.5
2023-11-12T04:15:58.863Z,991.5
2023-11-12T04:17:11.431Z,991.5
2023-11-12T04:18:24.200Z,991.4
2023-11-12T04:19:28.856Z,991.4
2023-11-12T04:20:37.593Z,991.5
2023-11-12T04:21:38.543Z,991.5
2023-11-12T04:22:39.509Z,991.5
2023-11-12T04:23:51.255Z,991.5
2023-11-12T04:25:03.782Z,991.5
2023-11-12T04:26:12.506Z,991.5
2023-11-12T04:27:17.385Z,991.5
2023-11-12T04:28:24.198Z,991.5
2023-11-12T04:29:40.641Z,991.5
2023-11-12T04:30:41.671Z,991.4
2023-11-12T04:31:50.366Z,991.5
2023-11-12T04:32:51.319Z,991.5
2023-11-12T04:34:03.827Z,991.5
2023-11-12T04:35:08.705Z,991.4
2023-11-12T04:36:13.555Z,991.5
2023-11-12T04:37:22.264Z,991.5
2023-11-12T04:38:27.154Z,991.5
2023-11-12T04:39:32.014Z,991.5
2023-11-12T04:40:40.967Z,991.4
2023-11-12T04:41:45.511Z,991.4
2023-11-12T04:42:46.596Z,991.4
2023-11-12T04:43:51.379Z,991.4
2023-11-12T04:45:03.233Z,991.5
2023-11-12T04:46:08.048Z,991.5
2023-11-12T04:47:12.776Z,991.5
2023-11-12T04:48:17.738Z,991.5
2023-11-12T04:49:18.648Z,991.5
2023-11-12T04:50:35.382Z,991.5
2023-11-12T04:51:49.600Z,991.5
2023-11-12T04:53:02.128Z,991.5
2023-11-12T04:54:10.924Z,991.5
2023-11-12T04:55:19.622Z,991.5
2023-11-12T04:56:28.563Z,991.5
2023-11-12T04:57:49.569Z,991.5
2023-11-12T04:58:54.338Z,991.5
2023-11-12T05:00:06.985Z,991.5
2023-11-12T05:01:15.703Z,991.6
2023-11-12T05:02:35.902Z,991.6
2023-11-12T05:04:11.224Z,991.7
2023-11-12T05:05:23.512Z,991.7
2023-11-12T05:06:28.354Z,991.7
2023-11-12T05:07:33.268Z,991.7
2023-11-12T05:08:37.987Z,991.7
2023-11-12T05:09:42.910Z,991.7
2023-11-12T05:10:47.688Z,991.7
2023-11-12T05:12:02.288Z,991.7
2023-11-12T05:13:03.402Z,991.8
2023-11-12T05:14:08.096Z,991.8
2023-11-12T05:15:13.022Z,991.8
2023-11-12T05:16:21.755Z,991.9
2023-11-12T05:17:22.622Z,991.9
2023-11-12T05:18:35.334Z,991.9
2023-11-12T05:19:43.882Z,991.9
2023-11-12T05:20:54.610Z,991.8
2023-11-12T05:22:07.172Z,991.1
2023-11-12T05:23:08.131Z,991.7
2023-11-12T05:24:24.573Z,991.8
2023-11-12T05:25:48.710Z,991.9
2023-11-12T05:27:01.226Z,991.9
2023-11-12T05:28:17.581Z,991.8
2023-11-12T05:29:26.589Z,991.9
2023-11-12T05:30:39.997Z,991.9
2023-11-12T05:31:48.560Z,991.9
2023-11-12T05:32:53.403Z,991.9
2023-11-12T05:34:09.818Z,991.9
2023-11-12T05:35:22.531Z,992
2023-11-12T05:36:34.967Z,991.9
2023-11-12T05:38:02.047Z,991.9
2023-11-12T05:39:22.417Z,992
2023-11-12T05:40:31.001Z,992
2023-11-12T05:41:36.865Z,992
2023-11-12T05:42:41.702Z,991.9
2023-11-12T05:43:58.090Z,992
2023-11-12T05:45:07.872Z,992
2023-11-12T05:46:20.704Z,992
2023-11-12T05:47:30.176Z,992
2023-11-12T05:48:50.351Z,992
2023-11-12T05:50:16.795Z,991.9
2023-11-12T05:51:30.043Z,992
2023-11-12T05:52:42.551Z,992
2023-11-12T05:53:47.382Z,992
2023-11-12T05:54:56.110Z,992
2023-11-12T05:56:18.617Z,991.9
2023-11-12T05:57:41.583Z,992
2023-11-12T05:59:02.878Z,992
2023-11-12T06:00:19.566Z,992.1
2023-11-12T06:01:36.668Z,992
2023-11-12T06:02:57.098Z,992
2023-11-12T06:04:13.529Z,992.1
2023-11-12T06:05:31.714Z,992.1
2023-11-12T06:06:40.595Z,992.1
2023-11-12T06:07:56.896Z,992.1
2023-11-12T06:09:17.043Z,992.1
2023-11-12T06:10:37.324Z,992.1
2023-11-12T06:11:57.560Z,992.1
2023-11-12T06:13:13.945Z,992.1
2023-11-12T06:14:31.561Z,992.1
2023-11-12T06:15:47.871Z,992.1
2023-11-12T06:17:00.667Z,992.1
2023-11-12T06:18:16.797Z,992.2
2023-11-12T06:19:33.267Z,992.2
2023-11-12T06:20:56.584Z,992.2
2023-11-12T06:22:21.844Z,992.2
2023-11-12T06:23:45.633Z,992.2
2023-11-12T06:25:05.868Z,992.2
2023-11-12T06:26:22.732Z,992.2
2023-11-12T06:27:37.079Z,992.2
2023-11-12T06:28:56.113Z,992.3
2023-11-12T06:30:08.650Z,992.3
2023-11-12T06:31:13.481Z,992.3
2023-11-12T06:32:29.931Z,992.3
2023-11-12T06:33:38.750Z,992.3
2023-11-12T06:34:51.105Z,992.3
2023-11-12T06:35:59.907Z,992.3
2023-11-12T06:37:12.455Z,992.3
2023-11-12T06:38:34.027Z,992.3
2023-11-12T06:39:57.895Z,992.3
2023-11-12T06:41:15.306Z,992.3
2023-11-12T06:42:33.813Z,992.4
2023-11-12T06:43:53.917Z,992.4
2023-11-12T06:45:20.009Z,992.3
2023-11-12T06:46:41.765Z,992.3
2023-11-12T06:48:03.673Z,992.4
2023-11-12T06:49:20.475Z,992.4
2023-11-12T06:50:37.741Z,992.4
2023-11-12T06:51:54.992Z,992.4
2023-11-12T06:53:15.217Z,992.4
2023-11-12T06:54:39.270Z,992.4
2023-11-12T06:55:55.598Z,992.5
2023-11-12T06:57:22.095Z,992.4
2023-11-12T06:58:39.249Z,992.5
2023-11-12T07:00:03.194Z,992.5
2023-11-12T07:01:31.202Z,992.5
2023-11-12T07:02:57.484Z,992.4
2023-11-12T07:04:17.777Z,992.5
2023-11-12T07:05:37.011Z,992.5
2023-11-12T07:07:00.982Z,992.5
2023-11-12T07:08:19.538Z,992.6
2023-11-12T07:09:40.842Z,992.5
2023-11-12T07:10:57.147Z,992.6
2023-11-12T07:12:21.596Z,992.6
2023-11-12T07:13:40.679Z,992.6
2023-11-12T07:14:53.352Z,992.6
2023-11-12T07:16:13.516Z,992.6
2023-11-12T07:17:37.590Z,992.6
2023-11-12T07:18:45.669Z,992.7
2023-11-12T07:20:09.555Z,992.6
2023-11-12T07:21:34.675Z,992.6
2023-11-12T07:22:51.059Z,992.7
2023-11-12T07:24:08.459Z,992.7
2023-11-12T07:25:28.971Z,992.7
2023-11-12T07:26:49.192Z,992.7
2023-11-12T07:28:13.048Z,992.7
2023-11-12T07:29:25.647Z,992.7
2023-11-12T07:30:49.800Z,992.7
2023-11-12T07:32:13.918Z,992.7
2023-11-12T07:33:37.991Z,992.8
2023-11-12T07:35:02.212Z,992.8
2023-11-12T07:36:26.149Z,992.8
2023-11-12T07:37:46.511Z,992.7
2023-11-12T07:39:11.565Z,992.7
2023-11-12T07:40:33.816Z,992.7
2023-11-12T07:41:50.240Z,992.7
2023-11-12T07:43:15.278Z,992.7
2023-11-12T07:44:40.414Z,992.7
2023-11-12T07:46:05.712Z,992.8
2023-11-12T07:47:30.697Z,992.8
2023-11-12T07:48:57.677Z,992.8
2023-11-12T07:50:23.811Z,992.8
2023-11-12T07:51:48.996Z,992.8
2023-11-12T07:53:09.283Z,992.8
2023-11-12T07:54:29.451Z,993
2023-11-12T07:55:49.682Z,992.9
2023-11-12T07:57:13.830Z,992.9
2023-11-12T07:58:37.855Z,992.8
2023-11-12T08:00:02.171Z,992.9
2023-11-12T08:01:14.577Z,992.6
2023-11-12T08:02:38.656Z,992.9
2023-11-12T08:04:03.304Z,992.9
2023-11-12T08:05:24.181Z,992.9
2023-11-12T08:06:45.378Z,993
2023-11-12T08:08:05.584Z,992.9
2023-11-12T08:09:30.712Z,992.9
2023-11-12T08:10:47.017Z,992.9
2023-11-12T08:12:07.365Z,992.9
2023-11-12T08:13:27.556Z,993
2023-11-12T08:14:53.709Z,993
2023-11-12T08:16:15.890Z,992.9
2023-11-12T08:17:40.993Z,992.9
2023-11-12T08:19:06.260Z,993
2023-11-12T08:20:22.871Z,993
2023-11-12T08:21:44.169Z,993.1
2023-11-12T08:23:10.877Z,993
2023-11-12T08:24:35.051Z,993
2023-11-12T08:26:02.807Z,993
2023-11-12T08:27:17.734Z,993
2023-11-12T08:28:41.557Z,993.1
2023-11-12T08:30:02.961Z,993.1
2023-11-12T08:31:23.235Z,993.1
2023-11-12T08:32:41.733Z,993.1
2023-11-12T08:33:57.938Z,993
2023-11-12T08:35:14.378Z,993.1
2023-11-12T08:36:19.304Z,993.1
2023-11-12T08:37:35.784Z,993.1
2023-11-12T08:38:52.014Z,993.1
2023-11-12T08:40:00.798Z,993.1
2023-11-12T08:41:21.021Z,993.1
2023-11-12T08:42:41.304Z,993.1
2023-11-12T08:44:08.406Z,993.2
2023-11-12T08:45:21.074Z,993.1
2023-11-12T08:46:42.311Z,993.1
2023-11-12T08:48:07.221Z,993
2023-11-12T08:49:31.326Z,993.1
2023-11-12T08:50:58.484Z,993.1
2023-11-12T14:33:09.276Z,994
2023-11-12T14:34:36.568Z,993.9
2023-11-12T14:36:03.641Z,994
2023-11-12T14:37:29.477Z,994
2023-11-12T14:38:54.706Z,994
2023-11-12T14:40:20.915Z,994.1
2023-11-12T14:41:38.131Z,994.1
2023-11-12T14:43:02.266Z,994
2023-11-12T14:44:26.287Z,994.1
2023-11-12T14:45:52.502Z,994
2023-11-12T14:47:16.615Z,994
2023-11-12T14:48:40.694Z,994
2023-11-12T16:26:41.906Z,994.4
2023-11-12T16:28:06.170Z,994.4
2023-11-12T16:29:30.291Z,994.4
2023-11-12T16:30:54.336Z,994.4
2023-11-12T16:32:18.764Z,994.4
2023-11-12T16:33:43.569Z,994.4
2023-11-12T16:35:07.529Z,994.4
2023-11-12T16:36:12.336Z,994.4
2023-11-12T16:37:39.597Z,994.4
2023-11-12T16:39:06.692Z,994.4
2023-11-12T16:40:31.695Z,993.7
2023-11-12T16:41:56.833Z,994.1
2023-11-12T16:43:21.123Z,994.3
2023-11-12T16:44:46.194Z,994.4
2023-11-12T16:46:11.440Z,994.5
2023-11-12T16:47:37.382Z,994.5
2023-11-12T16:48:53.683Z,994.5
2023-11-12T16:50:17.692Z,994.6
2023-11-12T16:51:41.907Z,994.6
2023-11-12T16:53:02.082Z,994.6
2023-11-12T16:54:26.268Z,994.6
2023-11-12T16:55:50.461Z,994.6
2023-11-12T16:57:14.445Z,994.5
2023-11-12T16:58:38.966Z,994.6
2023-11-12T17:00:03.673Z,994.6
2023-11-12T17:01:27.810Z,994.6
2023-11-12T17:02:53.942Z,994.6
2023-11-12T17:04:02.779Z,994.6
2023-11-12T17:05:31.629Z,994.6
2023-11-12T17:06:48.188Z,994.7
2023-11-12T17:08:08.848Z,994.7
2023-11-12T17:09:34.500Z,994.7
2023-11-12T17:10:58.658Z,994.7
2023-11-12T17:12:25.533Z,994.7
2023-11-12T17:13:48.789Z,994.7
2023-11-12T17:15:13.268Z,994.8
2023-11-12T17:16:39.131Z,994.8
2023-11-12T17:18:03.116Z,994.7
2023-11-12T17:19:27.183Z,994.7
2023-11-12T17:20:53.441Z,994.8
2023-11-12T17:22:18.495Z,994.7
2023-11-12T17:23:43.478Z,994.8
2023-11-12T17:25:07.646Z,994.7
2023-11-12T17:26:29.998Z,994.7
2023-11-12T17:27:56.965Z,994.8
2023-11-12T17:29:22.033Z,994.8
2023-11-12T17:30:34.699Z,994.7
2023-11-12T17:31:54.806Z,994.8
2023-11-12T17:33:15.118Z,994.8
2023-11-12T17:34:40.250Z,994.8
2023-11-12T17:36:02.631Z,994.8
2023-11-12T17:37:26.666Z,994.8
2023-11-12T17:38:50.858Z,994.8
2023-11-12T17:40:14.823Z,994.9
2023-11-12T17:41:40.852Z,994.9
2023-11-12T17:43:05.145Z,995
2023-11-12T17:44:29.112Z,995
2023-11-12T17:45:53.256Z,995
2023-11-12T17:47:17.399Z,995.1
2023-11-12T17:48:22.538Z,995
2023-11-12T17:49:47.441Z,995
2023-11-12T17:51:11.419Z,995
2023-11-12T17:52:35.535Z,995
2023-11-12T17:53:59.552Z,995
2023-11-12T17:55:23.786Z,995
2023-11-12T17:56:47.777Z,994.2
2023-11-12T17:58:12.000Z,994.6
2023-11-12T17:59:20.845Z,994.8
2023-11-12T18:00:47.965Z,995
2023-11-12T18:02:11.888Z,995
2023-11-12T18:03:37.155Z,995.1
2023-11-12T18:05:01.216Z,995.1
2023-11-12T18:06:27.277Z,995.1
2023-11-12T18:07:51.372Z,995.2
2023-11-12T18:08:57.150Z,995.2
2023-11-12T18:10:17.304Z,995.2
2023-11-12T18:11:41.528Z,995.2
2023-11-12T18:13:05.829Z,995.2
2023-11-12T18:14:22.189Z,995.2
2023-11-12T18:15:46.136Z,995.2
2023-11-12T18:17:10.181Z,995.2
2023-11-12T18:18:22.841Z,995.2
2023-11-12T18:19:46.847Z,995.2
2023-11-12T18:21:10.984Z,995.2
2023-11-12T18:22:35.079Z,995.3
2023-11-12T18:23:51.448Z,995.3
2023-11-12T18:25:15.651Z,995.3
2023-11-12T18:26:39.657Z,995.4
2023-11-12T18:28:03.764Z,995.3
2023-11-12T18:29:28.101Z,995.4
2023-11-12T18:30:52.109Z,995.3
2023-11-12T18:32:16.169Z,995.3
2023-11-12T18:33:32.838Z,995.3
2023-11-12T18:35:04.667Z,995.3
2023-11-12T18:36:28.786Z,995.3
2023-11-12T18:37:52.800Z,995.3
2023-11-12T18:39:17.043Z,995.3
2023-11-12T18:40:41.040Z,995.3
2023-11-12T18:42:05.178Z,995.3
2023-11-12T18:43:29.241Z,995.3
2023-11-12T18:44:53.306Z,995.2
2023-11-12T18:46:17.551Z,995.3
2023-11-12T18:47:22.801Z,995.3
2023-11-12T18:48:53.462Z,995.3
2023-11-12T18:50:19.722Z,995.3
2023-11-12T18:51:43.624Z,995.3
2023-11-12T18:53:08.686Z,995.3
2023-11-12T18:54:33.856Z,995.3
2023-11-12T18:55:57.973Z,995.3
2023-11-12T18:57:23.037Z,995.3
2023-11-12T18:58:39.993Z,995.4
2023-11-12T19:00:04.644Z,995.3
2023-11-12T19:01:28.717Z,995.4
2023-11-12T19:02:53.038Z,995.4
2023-11-12T19:04:19.898Z,995.3
2023-11-12T19:05:42.103Z,995.3
2023-11-12T19:07:06.258Z,995.4
2023-11-12T19:08:30.465Z,995.4
2023-11-12T19:09:57.410Z,995.4
2023-11-12T19:11:36.687Z,995.4
2023-11-12T19:12:45.472Z,995.4
2023-11-12T19:14:09.358Z,995.4
2023-11-12T19:15:34.524Z,995.4
2023-11-12T19:17:01.057Z,995.4
2023-11-12T19:18:25.763Z,995.4
2023-11-12T19:19:47.879Z,995.1
2023-11-12T19:21:04.426Z,995.3
2023-11-12T19:22:28.613Z,995.4
2023-11-12T19:23:52.700Z,995.4
2023-11-12T19:25:16.921Z,995.5
2023-11-12T19:26:40.660Z,995.5
2023-11-12T19:28:06.561Z,995.5
2023-11-12T19:29:29.043Z,995.5
2023-11-12T19:30:53.316Z,995.5
2023-11-12T19:32:17.163Z,994.8
2023-11-12T19:33:41.457Z,995.3
2023-11-12T19:34:57.588Z,995.5
2023-11-12T19:36:21.821Z,995.5
2023-11-12T19:37:45.955Z,995.5
2023-11-12T19:39:10.141Z,995.5
2023-11-12T19:40:34.182Z,995.5
2023-11-12T19:41:58.363Z,995.5
2023-11-12T19:43:22.441Z,995.5
2023-11-12T19:44:46.364Z,995.5
2023-11-12T19:46:10.634Z,995.5
2023-11-12T19:47:34.724Z,995.5
2023-11-12T19:48:59.775Z,995.5
2023-11-12T19:50:24.391Z,995.5
2023-11-12T19:51:49.065Z,995.5
2023-11-12T19:53:13.034Z,995.6
2023-11-12T19:54:39.102Z,995.6
2023-11-12T19:56:04.402Z,995.6
2023-11-12T19:57:32.267Z,995.6
2023-11-12T19:58:57.603Z,995.6
2023-11-12T20:00:20.680Z,995.5
2023-11-12T20:01:45.775Z,995.6
2023-11-12T20:03:09.790Z,995.6
2023-11-12T20:04:33.884Z,995.6
2023-11-12T20:06:00.434Z,995.6
2023-11-12T20:07:24.184Z,995.6
2023-11-12T20:08:49.340Z,995.6
2023-11-12T20:10:14.347Z,995.6
2023-11-12T20:11:38.592Z,995.6
2023-11-12T20:13:03.435Z,995.5
2023-11-12T20:14:27.949Z,995.5
2023-11-12T20:15:52.789Z,995.5
2023-11-12T20:17:15.815Z,995.7
2023-11-12T20:18:41.034Z,995.5
2023-11-12T20:20:06.168Z,995.6
2023-11-12T20:21:31.274Z,995.6
2023-11-12T20:22:55.393Z,995.6
2023-11-12T20:24:20.671Z,995.7
2023-11-12T20:25:45.472Z,995.7
2023-11-12T20:26:50.850Z,995.7
2023-11-12T20:28:21.675Z,995.7
2023-11-12T20:29:26.776Z,995.7
2023-11-12T20:30:51.491Z,995.7
2023-11-12T20:32:15.678Z,995.7
2023-11-12T20:33:39.740Z,995.8
2023-11-12T20:35:04.888Z,995.8
2023-11-12T20:36:31.908Z,995.7
2023-11-12T20:37:57.940Z,995.7
2023-11-12T20:39:23.463Z,995.7
2023-11-12T20:40:48.245Z,995.7
2023-11-12T20:42:12.479Z,995.7
2023-11-12T20:43:37.369Z,995.7
2023-11-12T20:45:01.630Z,995.7
2023-11-12T20:46:26.824Z,995.8
2023-11-12T20:47:51.697Z,995.8
2023-11-12T20:49:15.921Z,995.8
2023-11-12T20:50:40.901Z,995.7
2023-11-12T20:52:05.164Z,995.8
2023-11-12T20:53:32.099Z,995.8
2023-11-12T20:54:58.351Z,995.8
2023-11-12T20:56:11.408Z,995.8
2023-11-12T20:57:36.102Z,995.8
2023-11-12T20:59:01.062Z,995.8
2023-11-12T21:00:25.365Z,995.8
2023-11-12T21:01:50.402Z,995.8
2023-11-12T21:03:14.423Z,995.8
2023-11-12T21:04:20.032Z,995.8
2023-11-12T21:05:50.361Z,995.8
2023-11-12T21:07:16.567Z,995.8
2023-11-12T21:08:41.658Z,995.8
2023-11-12T21:10:06.629Z,995.8
2023-11-12T21:11:19.554Z,995.8
2023-11-12T21:12:33.145Z,995.8
2023-11-12T21:13:42.551Z,995.8
2023-11-12T21:15:06.515Z,995.8
2023-11-12T21:16:23.554Z,995.8
2023-11-12T21:17:49.001Z,995.8
2023-11-12T21:18:58.177Z,995.8
2023-11-12T21:20:25.918Z,995.8
2023-11-12T21:21:51.783Z,995.8
2023-11-12T21:23:16.371Z,995.8
2023-11-12T21:24:41.193Z,995.8
2023-11-12T21:26:05.258Z,995.7
2023-11-12T21:27:29.459Z,995.7
2023-11-12T21:28:54.436Z,995.7
2023-11-12T21:30:03.178Z,995.7
2023-11-12T21:31:27.391Z,995.7
2023-11-12T21:32:54.409Z,995.7
2023-11-12T21:34:20.724Z,995.7
2023-11-12T21:35:45.623Z,995.7
2023-11-12T21:37:09.747Z,995.7
2023-11-12T21:38:34.990Z,995.7
2023-11-12T21:39:58.885Z,995.6
2023-11-12T21:41:25.210Z,995.7
2023-11-12T21:42:49.186Z,995.7
2023-11-12T21:44:13.303Z,995.7
2023-11-12T21:45:39.437Z,995.7
2023-11-12T21:47:03.594Z,995.7
2023-11-12T21:48:28.586Z,995.7
2023-11-12T21:49:54.661Z,995.7
2023-11-12T21:51:18.749Z,995.7
2023-11-12T21:52:42.971Z,995.7
2023-11-12T21:53:55.557Z,995.7
2023-11-12T21:55:21.016Z,995.8
2023-11-12T21:56:45.596Z,995.8
2023-11-12T21:58:09.769Z,995.8
2023-11-12T21:59:34.871Z,995.8
2023-11-12T22:00:59.964Z,995.9
2023-11-12T22:02:05.319Z,995.9
2023-11-12T22:03:29.936Z,995.9
2023-11-12T22:04:53.936Z,995.9
2023-11-12T22:06:18.072Z,995.9
2023-11-12T22:07:44.192Z,995.9
2023-11-12T22:09:11.242Z,995.9
2023-11-12T22:10:20.469Z,995.9
2023-11-12T22:11:48.059Z,995.9
2023-11-12T22:13:13.342Z,995.9
2023-11-12T22:14:38.277Z,995.9
2023-11-12T22:16:05.860Z,996
2023-11-12T22:17:28.483Z,996
2023-11-12T22:18:51.858Z,996
2023-11-12T22:20:19.009Z,996
2023-11-12T22:21:43.972Z,996
2023-11-12T22:23:08.178Z,996.1
2023-11-12T22:24:13.517Z,996
2023-11-12T22:25:41.058Z,996.1
2023-11-12T22:26:46.404Z,996.1
2023-11-12T22:28:13.946Z,996.1
2023-11-12T22:29:41.096Z,996.1
2023-11-12T22:30:53.825Z,996.1
2023-11-12T22:32:18.696Z,996.1
2023-11-12T22:33:35.454Z,996.1
2023-11-12T22:35:00.367Z,996.1
2023-11-12T22:36:24.522Z,996.1
2023-11-12T22:37:48.749Z,996.2
2023-11-12T22:39:12.537Z,996.1
2023-11-12T22:40:25.138Z,996.2
2023-11-12T22:41:47.332Z,996.2
2023-11-12T22:43:11.466Z,996.2
2023-11-12T22:44:35.594Z,996.2
2023-11-12T22:45:59.857Z,996.2
2023-11-12T22:47:04.994Z,996.2
2023-11-12T22:48:29.190Z,996.3
2023-11-12T22:49:53.872Z,996.3
2023-11-12T22:51:06.433Z,996.3
2023-11-12T22:52:15.540Z,996.3
2023-11-12T22:53:41.217Z,996.3
2023-11-12T22:55:05.418Z,996.3
2023-11-12T22:56:29.464Z,996.3
2023-11-12T22:57:42.031Z,996.3
2023-11-12T22:58:58.498Z,996.3
2023-11-12T23:00:27.406Z,996.3
2023-11-12T23:01:46.877Z,996.3
2023-11-12T23:03:10.989Z,996.3
2023-11-12T23:04:34.924Z,996.3
2023-11-12T23:05:58.884Z,996.4
2023-11-12T23:07:23.157Z,996.3
2023-11-12T23:08:47.158Z,995.9
2023-11-12T23:10:12.464Z,996.1
2023-11-12T23:11:36.373Z,996.2
2023-11-12T23:13:01.690Z,996.2
2023-11-12T23:14:26.601Z,996.3
2023-11-12T23:15:46.939Z,996.2
2023-11-12T23:17:13.048Z,996.2
2023-11-12T23:18:36.964Z,996.2
2023-11-12T23:20:01.456Z,996.3
2023-11-12T23:21:27.186Z,996.2
2023-11-12T23:22:54.346Z,996.3
2023-11-12T23:24:06.983Z,996.3
2023-11-12T23:25:23.901Z,996.3
2023-11-12T23:26:49.319Z,996.2
2023-11-12T23:27:58.173Z,996.3
2023-11-12T23:29:25.120Z,996.3
2023-11-12T23:30:49.364Z,996.3
2023-11-12T23:32:10.213Z,996.3
2023-11-12T23:33:35.638Z,996.3
2023-11-12T23:34:59.691Z,996.3
2023-11-12T23:36:23.924Z,996.3
2023-11-12T23:37:47.987Z,996.3
2023-11-12T23:39:12.019Z,996.3
2023-11-12T23:40:37.199Z,996.3
2023-11-12T23:42:01.241Z,996.3
2023-11-12T23:43:10.353Z,996.4
2023-11-12T23:44:34.989Z,996.3
2023-11-12T23:45:59.222Z,996.4
2023-11-12T23:47:04.070Z,996.4
2023-11-12T23:48:16.520Z,996.3
2023-11-12T23:49:25.412Z,996.3
2023-11-12T23:50:51.316Z,996.4
2023-11-12T23:52:15.417Z,996.4
2023-11-12T23:53:40.547Z,996.4
2023-11-12T23:55:04.867Z,996.5
2023-11-12T23:56:09.485Z,996.5
2023-11-12T23:57:25.875Z,996.5
2023-11-12T23:58:52.965Z,996.5
2023-11-12T23:59:58.173Z,996.5
